sensor_id;sensor_type;location;lat;lon;timestamp;temperature;humidity
54788;DHT22;59598;48.112;16.280;2023-05-19T00:01:14;10.10;1.00
54788;DHT22;59598;48.112;16.280;2023-05-19T00:03:55;10.00;1.00
54788;DHT22;59598;48.112;16.280;2023-05-19T00:06:32;10.00;1.00
54788;DHT22;59598;48.112;16.280;2023-05-19T00:09:10;10.00;1.00
54788;DHT22;59598;48.112;16.280;2023-05-19T00:11:42;10.00;1.00
54788;DHT22;59598;48.112;16.280;2023-05-19T00:14:16;9.90;1.00
54788;DHT22;59598;48.112;16.280;2023-05-19T00:16:48;10.00;1.00
54788;DHT22;59598;48.112;16.280;2023-05-19T00:19:23;9.90;1.00
54788;DHT22;59598;48.112;16.280;2023-05-19T00:21:55;9.90;1.00
54788;DHT22;59598;48.112;16.280;2023-05-19T00:24:29;9.90;1.00
54788;DHT22;59598;48.112;16.280;2023-05-19T00:27:03;9.90;1.00
54788;DHT22;59598;48.112;16.280;2023-05-19T00:29:34;9.90;1.00
54788;DHT22;59598;48.112;16.280;2023-05-19T00:32:06;9.90;1.00
54788;DHT22;59598;48.112;16.280;2023-05-19T00:34:42;9.90;1.00
54788;DHT22;59598;48.112;16.280;2023-05-19T00:37:17;10.00;1.00
54788;DHT22;59598;48.112;16.280;2023-05-19T00:39:51;9.90;1.00
54788;DHT22;59598;48.112;16.280;2023-05-19T00:42:23;9.90;1.00
54788;DHT22;59598;48.112;16.280;2023-05-19T00:44:55;9.80;1.00
54788;DHT22;59598;48.112;16.280;2023-05-19T00:47:29;9.80;1.00
54788;DHT22;59598;48.112;16.280;2023-05-19T00:50:06;9.80;1.00
54788;DHT22;59598;48.112;16.280;2023-05-19T00:52:38;9.80;1.00
54788;DHT22;59598;48.112;16.280;2023-05-19T00:55:09;9.70;1.00
54788;DHT22;59598;48.112;16.280;2023-05-19T00:57:42;9.70;1.00
54788;DHT22;59598;48.112;16.280;2023-05-19T01:00:17;9.60;1.00
54788;DHT22;59598;48.112;16.280;2023-05-19T01:02:49;9.60;7.80
54788;DHT22;59598;48.112;16.280;2023-05-19T01:05:27;9.60;35.80
54788;DHT22;59598;48.112;16.280;2023-05-19T01:08:02;9.50;50.00
54788;DHT22;59598;48.112;16.280;2023-05-19T01:10:36;9.50;53.10
54788;DHT22;59598;48.112;16.280;2023-05-19T01:13:11;9.50;76.00
54788;DHT22;59598;48.112;16.280;2023-05-19T01:16:07;9.50;95.10
54788;DHT22;59598;48.112;16.280;2023-05-19T01:22:11;9.30;99.90
54788;DHT22;59598;48.112;16.280;2023-05-19T01:28:18;9.20;99.90
54788;DHT22;59598;48.112;16.280;2023-05-19T01:30:59;9.20;99.90
54788;DHT22;59598;48.112;16.280;2023-05-19T01:33:37;9.20;99.90
54788;DHT22;59598;48.112;16.280;2023-05-19T01:36:11;9.20;99.90
54788;DHT22;59598;48.112;16.280;2023-05-19T01:38:44;9.20;99.90
54788;DHT22;59598;48.112;16.280;2023-05-19T01:41:21;9.30;99.90
54788;DHT22;59598;48.112;16.280;2023-05-19T01:43:58;9.30;99.90
54788;DHT22;59598;48.112;16.280;2023-05-19T01:46:29;9.30;99.90
54788;DHT22;59598;48.112;16.280;2023-05-19T01:49:08;9.30;99.90
54788;DHT22;59598;48.112;16.280;2023-05-19T01:51:45;9.30;99.90
54788;DHT22;59598;48.112;16.280;2023-05-19T01:54:17;9.30;99.90
54788;DHT22;59598;48.112;16.280;2023-05-19T01:57:27;9.30;99.90
54788;DHT22;59598;48.112;16.280;2023-05-19T02:00:37;9.30;99.90
54788;DHT22;59598;48.112;16.280;2023-05-19T02:06:05;9.20;99.90
54788;DHT22;59598;48.112;16.280;2023-05-19T02:09:03;9.20;99.90
54788;DHT22;59598;48.112;16.280;2023-05-19T02:14:59;9.00;99.90
54788;DHT22;59598;48.112;16.280;2023-05-19T02:17:32;8.90;99.90
54788;DHT22;59598;48.112;16.280;2023-05-19T02:20:08;8.80;99.90
54788;DHT22;59598;48.112;16.280;2023-05-19T02:22:42;8.70;99.90
54788;DHT22;59598;48.112;16.280;2023-05-19T02:25:13;8.80;99.90
54788;DHT22;59598;48.112;16.280;2023-05-19T02:27:45;8.70;99.90
54788;DHT22;59598;48.112;16.280;2023-05-19T02:30:16;8.60;99.90
54788;DHT22;59598;48.112;16.280;2023-05-19T02:32:53;8.60;99.90
54788;DHT22;59598;48.112;16.280;2023-05-19T02:35:25;8.60;99.90
54788;DHT22;59598;48.112;16.280;2023-05-19T02:37:58;8.60;99.90
54788;DHT22;59598;48.112;16.280;2023-05-19T02:40:30;8.60;99.90
54788;DHT22;59598;48.112;16.280;2023-05-19T02:43:03;8.60;99.90
54788;DHT22;59598;48.112;16.280;2023-05-19T02:45:34;8.60;99.90
54788;DHT22;59598;48.112;16.280;2023-05-19T02:48:06;8.60;99.90
54788;DHT22;59598;48.112;16.280;2023-05-19T02:50:40;8.60;99.90
54788;DHT22;59598;48.112;16.280;2023-05-19T02:53:11;8.60;99.90
54788;DHT22;59598;48.112;16.280;2023-05-19T02:55:44;8.60;99.90
54788;DHT22;59598;48.112;16.280;2023-05-19T02:58:21;8.60;99.90
54788;DHT22;59598;48.112;16.280;2023-05-19T03:00:52;8.60;99.90
54788;DHT22;59598;48.112;16.280;2023-05-19T03:03:26;8.70;99.90
54788;DHT22;59598;48.112;16.280;2023-05-19T03:05:59;8.70;99.90
54788;DHT22;59598;48.112;16.280;2023-05-19T03:08:30;8.70;99.90
54788;DHT22;59598;48.112;16.280;2023-05-19T03:11:06;8.70;99.90
54788;DHT22;59598;48.112;16.280;2023-05-19T03:13:37;8.70;99.90
54788;DHT22;59598;48.112;16.280;2023-05-19T03:16:08;8.70;99.90
54788;DHT22;59598;48.112;16.280;2023-05-19T03:18:47;8.70;99.90
54788;DHT22;59598;48.112;16.280;2023-05-19T03:21:18;8.70;99.90
54788;DHT22;59598;48.112;16.280;2023-05-19T03:23:50;8.70;99.90
54788;DHT22;59598;48.112;16.280;2023-05-19T03:26:22;8.70;99.90
54788;DHT22;59598;48.112;16.280;2023-05-19T03:28:56;8.70;99.90
54788;DHT22;59598;48.112;16.280;2023-05-19T03:31:27;8.80;99.90
54788;DHT22;59598;48.112;16.280;2023-05-19T03:34:06;8.80;99.90
54788;DHT22;59598;48.112;16.280;2023-05-19T03:36:37;8.80;99.90
54788;DHT22;59598;48.112;16.280;2023-05-19T03:39:13;8.80;99.90
54788;DHT22;59598;48.112;16.280;2023-05-19T03:41:44;8.80;99.90
54788;DHT22;59598;48.112;16.280;2023-05-19T03:44:18;8.90;99.90
54788;DHT22;59598;48.112;16.280;2023-05-19T03:46:52;8.90;99.90
54788;DHT22;59598;48.112;16.280;2023-05-19T03:49:25;8.90;99.90
54788;DHT22;59598;48.112;16.280;2023-05-19T03:52:00;8.90;99.90
54788;DHT22;59598;48.112;16.280;2023-05-19T03:54:36;8.90;99.90
54788;DHT22;59598;48.112;16.280;2023-05-19T03:57:16;9.00;99.90
54788;DHT22;59598;48.112;16.280;2023-05-19T03:59:47;8.90;99.90
54788;DHT22;59598;48.112;16.280;2023-05-19T04:02:20;9.00;99.90
54788;DHT22;59598;48.112;16.280;2023-05-19T04:04:57;9.00;99.90
54788;DHT22;59598;48.112;16.280;2023-05-19T04:07:35;9.00;99.90
54788;DHT22;59598;48.112;16.280;2023-05-19T04:10:11;9.00;99.90
54788;DHT22;59598;48.112;16.280;2023-05-19T04:12:45;9.00;99.90
54788;DHT22;59598;48.112;16.280;2023-05-19T04:15:18;9.00;99.90
54788;DHT22;59598;48.112;16.280;2023-05-19T04:17:49;8.90;99.90
54788;DHT22;59598;48.112;16.280;2023-05-19T04:20:20;9.00;99.90
54788;DHT22;59598;48.112;16.280;2023-05-19T04:22:51;9.00;99.90
54788;DHT22;59598;48.112;16.280;2023-05-19T04:25:22;9.00;99.90
54788;DHT22;59598;48.112;16.280;2023-05-19T04:27:55;9.00;99.90
54788;DHT22;59598;48.112;16.280;2023-05-19T04:30:28;9.00;99.90
54788;DHT22;59598;48.112;16.280;2023-05-19T04:32:59;9.10;99.90
54788;DHT22;59598;48.112;16.280;2023-05-19T04:35:31;9.10;99.90
54788;DHT22;59598;48.112;16.280;2023-05-19T04:38:04;9.20;99.90
54788;DHT22;59598;48.112;16.280;2023-05-19T04:40:35;9.30;99.90
54788;DHT22;59598;48.112;16.280;2023-05-19T04:43:07;9.40;99.90
54788;DHT22;59598;48.112;16.280;2023-05-19T04:45:43;9.60;99.90
54788;DHT22;59598;48.112;16.280;2023-05-19T04:48:16;10.00;99.90
54788;DHT22;59598;48.112;16.280;2023-05-19T04:50:48;10.40;1.00
54788;DHT22;59598;48.112;16.280;2023-05-19T04:53:21;10.60;1.00
54788;DHT22;59598;48.112;16.280;2023-05-19T04:55:57;10.70;1.00
54788;DHT22;59598;48.112;16.280;2023-05-19T04:58:31;10.50;1.00
54788;DHT22;59598;48.112;16.280;2023-05-19T05:01:04;10.50;1.00
54788;DHT22;59598;48.112;16.280;2023-05-19T05:03:39;10.50;1.00
54788;DHT22;59598;48.112;16.280;2023-05-19T05:06:10;10.70;1.00
54788;DHT22;59598;48.112;16.280;2023-05-19T05:08:41;10.80;1.00
54788;DHT22;59598;48.112;16.280;2023-05-19T05:11:16;10.90;1.00
54788;DHT22;59598;48.112;16.280;2023-05-19T05:13:50;10.80;1.00
54788;DHT22;59598;48.112;16.280;2023-05-19T05:16:25;10.90;1.00
54788;DHT22;59598;48.112;16.280;2023-05-19T05:19:00;10.70;1.00
54788;DHT22;59598;48.112;16.280;2023-05-19T05:21:32;10.60;1.00
54788;DHT22;59598;48.112;16.280;2023-05-19T05:24:09;10.60;1.00
54788;DHT22;59598;48.112;16.280;2023-05-19T05:26:41;10.70;1.00
54788;DHT22;59598;48.112;16.280;2023-05-19T05:29:15;10.90;1.00
54788;DHT22;59598;48.112;16.280;2023-05-19T05:31:47;11.00;1.00
54788;DHT22;59598;48.112;16.280;2023-05-19T05:34:21;11.20;1.00
54788;DHT22;59598;48.112;16.280;2023-05-19T05:36:53;11.40;1.00
54788;DHT22;59598;48.112;16.280;2023-05-19T05:39:27;11.60;1.00
54788;DHT22;59598;48.112;16.280;2023-05-19T05:41:58;11.70;1.00
54788;DHT22;59598;48.112;16.280;2023-05-19T05:44:31;11.90;99.90
54788;DHT22;59598;48.112;16.280;2023-05-19T05:47:07;11.80;99.90
54788;DHT22;59598;48.112;16.280;2023-05-19T05:49:38;11.70;99.90
54788;DHT22;59598;48.112;16.280;2023-05-19T05:52:14;11.70;99.90
54788;DHT22;59598;48.112;16.280;2023-05-19T05:54:46;11.70;99.90
54788;DHT22;59598;48.112;16.280;2023-05-19T05:57:18;11.80;1.00
54788;DHT22;59598;48.112;16.280;2023-05-19T05:59:49;11.90;99.90
54788;DHT22;59598;48.112;16.280;2023-05-19T06:02:20;11.90;99.90
54788;DHT22;59598;48.112;16.280;2023-05-19T06:04:54;12.10;99.90
54788;DHT22;59598;48.112;16.280;2023-05-19T06:07:27;12.10;99.90
54788;DHT22;59598;48.112;16.280;2023-05-19T06:10:00;12.30;99.90
54788;DHT22;59598;48.112;16.280;2023-05-19T06:12:32;12.40;89.80
54788;DHT22;59598;48.112;16.280;2023-05-19T06:15:05;12.60;1.00
54788;DHT22;59598;48.112;16.280;2023-05-19T06:17:39;12.60;1.00
54788;DHT22;59598;48.112;16.280;2023-05-19T06:20:11;12.60;1.00
54788;DHT22;59598;48.112;16.280;2023-05-19T06:22:48;12.30;1.00
54788;DHT22;59598;48.112;16.280;2023-05-19T06:25:23;12.80;1.00
54788;DHT22;59598;48.112;16.280;2023-05-19T06:27:57;12.50;1.00
54788;DHT22;59598;48.112;16.280;2023-05-19T06:30:28;12.70;1.00
54788;DHT22;59598;48.112;16.280;2023-05-19T06:33:02;12.70;1.00
54788;DHT22;59598;48.112;16.280;2023-05-19T06:35:36;13.00;1.00
54788;DHT22;59598;48.112;16.280;2023-05-19T06:38:10;13.50;99.90
54788;DHT22;59598;48.112;16.280;2023-05-19T06:40:44;13.90;1.00
54788;DHT22;59598;48.112;16.280;2023-05-19T06:43:15;13.80;1.00
54788;DHT22;59598;48.112;16.280;2023-05-19T06:45:46;13.70;1.00
54788;DHT22;59598;48.112;16.280;2023-05-19T06:48:18;14.10;36.40
54788;DHT22;59598;48.112;16.280;2023-05-19T06:50:49;14.70;1.00
54788;DHT22;59598;48.112;16.280;2023-05-19T06:53:23;15.00;1.00
54788;DHT22;59598;48.112;16.280;2023-05-19T06:55:54;15.30;1.00
54788;DHT22;59598;48.112;16.280;2023-05-19T06:58:26;15.80;1.00
54788;DHT22;59598;48.112;16.280;2023-05-19T07:01:02;16.40;1.00
54788;DHT22;59598;48.112;16.280;2023-05-19T07:03:38;16.50;1.00
54788;DHT22;59598;48.112;16.280;2023-05-19T07:06:16;17.00;1.00
54788;DHT22;59598;48.112;16.280;2023-05-19T07:08:47;17.70;1.00
54788;DHT22;59598;48.112;16.280;2023-05-19T07:11:21;18.10;1.00
54788;DHT22;59598;48.112;16.280;2023-05-19T07:13:52;18.30;1.00
54788;DHT22;59598;48.112;16.280;2023-05-19T07:16:26;17.90;1.00
54788;DHT22;59598;48.112;16.280;2023-05-19T07:19:03;17.60;1.00
54788;DHT22;59598;48.112;16.280;2023-05-19T07:21:35;17.80;1.00
54788;DHT22;59598;48.112;16.280;2023-05-19T07:24:07;18.00;1.00
54788;DHT22;59598;48.112;16.280;2023-05-19T07:26:40;18.00;1.00
54788;DHT22;59598;48.112;16.280;2023-05-19T07:29:14;18.10;11.80
54788;DHT22;59598;48.112;16.280;2023-05-19T07:31:50;18.50;17.60
54788;DHT22;59598;48.112;16.280;2023-05-19T07:34:25;19.30;11.00
54788;DHT22;59598;48.112;16.280;2023-05-19T07:37:01;19.90;41.20
54788;DHT22;59598;48.112;16.280;2023-05-19T07:39:37;20.40;60.70
54788;DHT22;59598;48.112;16.280;2023-05-19T07:42:10;19.90;93.10
54788;DHT22;59598;48.112;16.280;2023-05-19T07:44:44;19.90;93.40
54788;DHT22;59598;48.112;16.280;2023-05-19T07:47:15;19.90;93.00
54788;DHT22;59598;48.112;16.280;2023-05-19T07:49:46;20.00;94.00
54788;DHT22;59598;48.112;16.280;2023-05-19T07:52:21;20.30;98.70
54788;DHT22;59598;48.112;16.280;2023-05-19T07:54:55;20.40;96.20
54788;DHT22;59598;48.112;16.280;2023-05-19T07:57:27;20.00;99.90
54788;DHT22;59598;48.112;16.280;2023-05-19T07:59:58;20.30;99.90
54788;DHT22;59598;48.112;16.280;2023-05-19T08:02:30;20.20;99.90
54788;DHT22;59598;48.112;16.280;2023-05-19T08:05:01;20.50;99.60
54788;DHT22;59598;48.112;16.280;2023-05-19T08:07:32;20.30;98.50
54788;DHT22;59598;48.112;16.280;2023-05-19T08:10:04;20.40;95.30
54788;DHT22;59598;48.112;16.280;2023-05-19T08:12:38;20.20;98.30
54788;DHT22;59598;48.112;16.280;2023-05-19T08:15:12;19.90;99.90
54788;DHT22;59598;48.112;16.280;2023-05-19T08:17:43;19.80;99.90
54788;DHT22;59598;48.112;16.280;2023-05-19T08:20:17;19.70;89.60
54788;DHT22;59598;48.112;16.280;2023-05-19T08:22:48;19.20;86.10
54788;DHT22;59598;48.112;16.280;2023-05-19T08:25:23;18.70;93.30
54788;DHT22;59598;48.112;16.280;2023-05-19T08:27:57;18.80;94.10
54788;DHT22;59598;48.112;16.280;2023-05-19T08:30:34;19.10;91.80
54788;DHT22;59598;48.112;16.280;2023-05-19T08:33:08;19.30;89.30
54788;DHT22;59598;48.112;16.280;2023-05-19T08:35:45;18.90;90.20
54788;DHT22;59598;48.112;16.280;2023-05-19T08:38:19;19.10;92.00
54788;DHT22;59598;48.112;16.280;2023-05-19T08:40:54;19.20;85.20
54788;DHT22;59598;48.112;16.280;2023-05-19T08:43:25;19.20;90.70
54788;DHT22;59598;48.112;16.280;2023-05-19T08:45:58;19.10;85.40
54788;DHT22;59598;48.112;16.280;2023-05-19T08:48:31;19.30;87.10
54788;DHT22;59598;48.112;16.280;2023-05-19T08:51:13;19.60;68.70
54788;DHT22;59598;48.112;16.280;2023-05-19T08:53:50;19.50;73.90
54788;DHT22;59598;48.112;16.280;2023-05-19T08:56:23;19.70;57.10
54788;DHT22;59598;48.112;16.280;2023-05-19T08:58:57;19.50;55.60
54788;DHT22;59598;48.112;16.280;2023-05-19T09:01:32;19.70;58.90
54788;DHT22;59598;48.112;16.280;2023-05-19T09:04:04;19.20;65.10
54788;DHT22;59598;48.112;16.280;2023-05-19T09:06:38;19.00;70.80
54788;DHT22;59598;48.112;16.280;2023-05-19T09:09:16;19.10;72.80
54788;DHT22;59598;48.112;16.280;2023-05-19T09:11:50;19.60;81.40
54788;DHT22;59598;48.112;16.280;2023-05-19T09:14:29;19.70;73.10
54788;DHT22;59598;48.112;16.280;2023-05-19T09:17:01;20.10;78.40
54788;DHT22;59598;48.112;16.280;2023-05-19T09:19:35;20.20;77.20
54788;DHT22;59598;48.112;16.280;2023-05-19T09:22:15;20.80;78.80
54788;DHT22;59598;48.112;16.280;2023-05-19T09:24:50;21.80;81.60
54788;DHT22;59598;48.112;16.280;2023-05-19T09:27:22;23.00;77.70
54788;DHT22;59598;48.112;16.280;2023-05-19T09:29:54;24.00;54.10
54788;DHT22;59598;48.112;16.280;2023-05-19T09:32:26;23.80;52.60
54788;DHT22;59598;48.112;16.280;2023-05-19T09:35:02;23.10;42.20
54788;DHT22;59598;48.112;16.280;2023-05-19T09:37:40;23.10;35.80
54788;DHT22;59598;48.112;16.280;2023-05-19T09:40:14;22.50;27.30
54788;DHT22;59598;48.112;16.280;2023-05-19T09:42:45;22.50;32.80
54788;DHT22;59598;48.112;16.280;2023-05-19T09:45:22;22.70;34.10
54788;DHT22;59598;48.112;16.280;2023-05-19T09:47:53;22.10;34.30
54788;DHT22;59598;48.112;16.280;2023-05-19T09:50:24;21.90;30.90
54788;DHT22;59598;48.112;16.280;2023-05-19T09:53:00;22.20;31.50
54788;DHT22;59598;48.112;16.280;2023-05-19T09:55:34;22.30;15.00
54788;DHT22;59598;48.112;16.280;2023-05-19T09:58:09;22.50;17.70
54788;DHT22;59598;48.112;16.280;2023-05-19T10:00:50;22.70;12.70
54788;DHT22;59598;48.112;16.280;2023-05-19T10:03:25;23.10;13.50
54788;DHT22;59598;48.112;16.280;2023-05-19T10:06:05;23.40;14.80
54788;DHT22;59598;48.112;16.280;2023-05-19T10:08:39;23.80;13.30
54788;DHT22;59598;48.112;16.280;2023-05-19T10:11:12;22.20;12.10
54788;DHT22;59598;48.112;16.280;2023-05-19T10:13:46;23.10;12.30
54788;DHT22;59598;48.112;16.280;2023-05-19T10:16:21;23.60;13.60
54788;DHT22;59598;48.112;16.280;2023-05-19T10:18:54;23.80;13.20
54788;DHT22;59598;48.112;16.280;2023-05-19T10:21:27;24.70;2.60
54788;DHT22;59598;48.112;16.280;2023-05-19T10:23:59;25.00;1.00
54788;DHT22;59598;48.112;16.280;2023-05-19T10:26:34;24.80;1.00
54788;DHT22;59598;48.112;16.280;2023-05-19T10:29:11;25.50;1.00
54788;DHT22;59598;48.112;16.280;2023-05-19T10:31:46;25.70;1.00
54788;DHT22;59598;48.112;16.280;2023-05-19T10:35:08;25.50;2.50
54788;DHT22;59598;48.112;16.280;2023-05-19T10:37:56;26.10;1.00
54788;DHT22;59598;48.112;16.280;2023-05-19T10:40:33;26.10;7.60
54788;DHT22;59598;48.112;16.280;2023-05-19T10:45:52;25.70;4.70
54788;DHT22;59598;48.112;16.280;2023-05-19T10:48:24;26.40;3.90
54788;DHT22;59598;48.112;16.280;2023-05-19T10:50:59;27.30;2.70
54788;DHT22;59598;48.112;16.280;2023-05-19T10:53:31;28.10;1.00
54788;DHT22;59598;48.112;16.280;2023-05-19T10:56:06;29.20;1.00
54788;DHT22;59598;48.112;16.280;2023-05-19T11:01:18;26.40;1.00
54788;DHT22;59598;48.112;16.280;2023-05-19T11:03:56;25.30;1.00
54788;DHT22;59598;48.112;16.280;2023-05-19T11:06:33;24.90;1.00
54788;DHT22;59598;48.112;16.280;2023-05-19T11:09:13;24.90;1.00
54788;DHT22;59598;48.112;16.280;2023-05-19T11:11:52;24.20;1.00
54788;DHT22;59598;48.112;16.280;2023-05-19T11:14:27;23.60;1.00
54788;DHT22;59598;48.112;16.280;2023-05-19T11:17:01;23.60;1.00
54788;DHT22;59598;48.112;16.280;2023-05-19T11:19:35;23.80;1.00
54788;DHT22;59598;48.112;16.280;2023-05-19T11:22:14;24.60;1.00
54788;DHT22;59598;48.112;16.280;2023-05-19T11:24:53;26.90;1.00
54788;DHT22;59598;48.112;16.280;2023-05-19T11:27:34;29.00;1.00
54788;DHT22;59598;48.112;16.280;2023-05-19T11:30:10;29.90;1.00
54788;DHT22;59598;48.112;16.280;2023-05-19T11:32:46;29.50;1.00
54788;DHT22;59598;48.112;16.280;2023-05-19T11:35:22;29.20;1.00
54788;DHT22;59598;48.112;16.280;2023-05-19T11:37:58;28.70;1.00
54788;DHT22;59598;48.112;16.280;2023-05-19T11:40:32;27.80;1.00
54788;DHT22;59598;48.112;16.280;2023-05-19T11:43:08;27.00;1.00
54788;DHT22;59598;48.112;16.280;2023-05-19T11:45:45;27.50;1.00
54788;DHT22;59598;48.112;16.280;2023-05-19T11:48:22;27.50;1.00
54788;DHT22;59598;48.112;16.280;2023-05-19T11:50:54;26.40;1.00
54788;DHT22;59598;48.112;16.280;2023-05-19T11:53:26;25.50;1.00
54788;DHT22;59598;48.112;16.280;2023-05-19T11:56:04;24.90;1.00
54788;DHT22;59598;48.112;16.280;2023-05-19T11:58:36;24.20;1.00
54788;DHT22;59598;48.112;16.280;2023-05-19T12:01:07;24.70;1.00
54788;DHT22;59598;48.112;16.280;2023-05-19T12:03:40;26.90;1.00
54788;DHT22;59598;48.112;16.280;2023-05-19T12:06:11;28.20;1.00
54788;DHT22;59598;48.112;16.280;2023-05-19T12:08:51;28.60;1.00
54788;DHT22;59598;48.112;16.280;2023-05-19T12:11:24;28.20;1.00
54788;DHT22;59598;48.112;16.280;2023-05-19T12:13:58;27.40;1.00
54788;DHT22;59598;48.112;16.280;2023-05-19T12:16:35;26.10;1.00
54788;DHT22;59598;48.112;16.280;2023-05-19T12:19:09;25.90;1.00
54788;DHT22;59598;48.112;16.280;2023-05-19T12:21:40;25.70;1.00
54788;DHT22;59598;48.112;16.280;2023-05-19T12:24:15;25.70;1.00
54788;DHT22;59598;48.112;16.280;2023-05-19T12:26:46;25.40;1.00
54788;DHT22;59598;48.112;16.280;2023-05-19T12:29:22;24.60;1.00
54788;DHT22;59598;48.112;16.280;2023-05-19T12:31:57;23.70;1.00
54788;DHT22;59598;48.112;16.280;2023-05-19T12:34:30;23.20;1.00
54788;DHT22;59598;48.112;16.280;2023-05-19T12:37:01;23.10;1.00
54788;DHT22;59598;48.112;16.280;2023-05-19T12:39:40;22.60;1.00
54788;DHT22;59598;48.112;16.280;2023-05-19T12:42:15;22.80;1.00
54788;DHT22;59598;48.112;16.280;2023-05-19T12:44:50;23.10;1.00
54788;DHT22;59598;48.112;16.280;2023-05-19T12:47:32;23.10;1.00
54788;DHT22;59598;48.112;16.280;2023-05-19T12:50:06;23.20;1.00
54788;DHT22;59598;48.112;16.280;2023-05-19T12:52:47;23.70;1.00
54788;DHT22;59598;48.112;16.280;2023-05-19T12:55:22;24.30;1.00
54788;DHT22;59598;48.112;16.280;2023-05-19T12:57:53;23.70;1.00
54788;DHT22;59598;48.112;16.280;2023-05-19T13:00:30;24.40;1.00
54788;DHT22;59598;48.112;16.280;2023-05-19T13:03:07;25.50;1.00
54788;DHT22;59598;48.112;16.280;2023-05-19T13:05:49;27.30;1.00
54788;DHT22;59598;48.112;16.280;2023-05-19T13:08:23;27.80;1.00
54788;DHT22;59598;48.112;16.280;2023-05-19T13:11:01;29.10;1.00
54788;DHT22;59598;48.112;16.280;2023-05-19T13:13:32;29.30;1.00
54788;DHT22;59598;48.112;16.280;2023-05-19T13:16:05;28.70;1.00
54788;DHT22;59598;48.112;16.280;2023-05-19T13:18:36;29.00;1.00
54788;DHT22;59598;48.112;16.280;2023-05-19T13:21:08;29.10;1.00
54788;DHT22;59598;48.112;16.280;2023-05-19T13:23:40;27.40;1.00
54788;DHT22;59598;48.112;16.280;2023-05-19T13:26:16;27.70;1.00
54788;DHT22;59598;48.112;16.280;2023-05-19T13:28:47;27.70;1.00
54788;DHT22;59598;48.112;16.280;2023-05-19T13:31:21;26.70;1.00
54788;DHT22;59598;48.112;16.280;2023-05-19T13:33:53;26.00;1.00
54788;DHT22;59598;48.112;16.280;2023-05-19T13:36:24;26.20;1.00
54788;DHT22;59598;48.112;16.280;2023-05-19T13:39:00;26.50;1.00
54788;DHT22;59598;48.112;16.280;2023-05-19T13:41:31;27.50;1.00
54788;DHT22;59598;48.112;16.280;2023-05-19T13:44:02;27.90;1.00
54788;DHT22;59598;48.112;16.280;2023-05-19T13:46:34;28.20;1.00
54788;DHT22;59598;48.112;16.280;2023-05-19T13:49:08;27.50;1.00
54788;DHT22;59598;48.112;16.280;2023-05-19T13:51:41;27.10;1.00
54788;DHT22;59598;48.112;16.280;2023-05-19T13:54:14;27.80;1.00
54788;DHT22;59598;48.112;16.280;2023-05-19T13:56:50;28.70;1.00
54788;DHT22;59598;48.112;16.280;2023-05-19T13:59:21;29.30;1.00
54788;DHT22;59598;48.112;16.280;2023-05-19T14:01:52;26.50;1.00
54788;DHT22;59598;48.112;16.280;2023-05-19T14:04:25;25.30;1.00
54788;DHT22;59598;48.112;16.280;2023-05-19T14:06:59;24.90;1.00
54788;DHT22;59598;48.112;16.280;2023-05-19T14:09:31;25.80;1.00
54788;DHT22;59598;48.112;16.280;2023-05-19T14:12:05;27.60;1.00
54788;DHT22;59598;48.112;16.280;2023-05-19T14:14:41;27.40;1.00
54788;DHT22;59598;48.112;16.280;2023-05-19T14:17:20;27.00;1.00
54788;DHT22;59598;48.112;16.280;2023-05-19T14:19:52;27.90;1.00
54788;DHT22;59598;48.112;16.280;2023-05-19T14:22:23;28.50;1.00
54788;DHT22;59598;48.112;16.280;2023-05-19T14:24:56;28.30;1.00
54788;DHT22;59598;48.112;16.280;2023-05-19T14:27:28;27.50;1.00
54788;DHT22;59598;48.112;16.280;2023-05-19T14:30:05;26.50;1.00
54788;DHT22;59598;48.112;16.280;2023-05-19T14:32:38;26.50;1.00
54788;DHT22;59598;48.112;16.280;2023-05-19T14:35:12;26.00;1.00
54788;DHT22;59598;48.112;16.280;2023-05-19T14:37:49;26.10;1.00
54788;DHT22;59598;48.112;16.280;2023-05-19T14:40:21;26.70;1.00
54788;DHT22;59598;48.112;16.280;2023-05-19T14:42:52;26.50;1.00
54788;DHT22;59598;48.112;16.280;2023-05-19T14:45:26;26.50;1.00
54788;DHT22;59598;48.112;16.280;2023-05-19T14:48:02;25.70;1.00
54788;DHT22;59598;48.112;16.280;2023-05-19T14:50:36;24.40;1.00
54788;DHT22;59598;48.112;16.280;2023-05-19T14:53:08;23.60;1.00
54788;DHT22;59598;48.112;16.280;2023-05-19T14:55:39;24.00;1.00
54788;DHT22;59598;48.112;16.280;2023-05-19T14:58:11;23.50;1.00
54788;DHT22;59598;48.112;16.280;2023-05-19T15:00:46;23.40;1.00
54788;DHT22;59598;48.112;16.280;2023-05-19T15:03:19;22.90;1.00
54788;DHT22;59598;48.112;16.280;2023-05-19T15:05:53;22.20;1.00
54788;DHT22;59598;48.112;16.280;2023-05-19T15:08:27;21.60;1.00
54788;DHT22;59598;48.112;16.280;2023-05-19T15:11:05;21.30;1.00
54788;DHT22;59598;48.112;16.280;2023-05-19T15:13:39;21.20;1.00
54788;DHT22;59598;48.112;16.280;2023-05-19T15:16:10;20.90;1.00
54788;DHT22;59598;48.112;16.280;2023-05-19T15:18:41;20.70;1.00
54788;DHT22;59598;48.112;16.280;2023-05-19T15:21:13;20.70;1.00
54788;DHT22;59598;48.112;16.280;2023-05-19T15:23:50;20.70;1.00
54788;DHT22;59598;48.112;16.280;2023-05-19T15:26:23;20.70;1.00
54788;DHT22;59598;48.112;16.280;2023-05-19T15:28:58;20.60;1.00
54788;DHT22;59598;48.112;16.280;2023-05-19T15:31:29;20.40;1.00
54788;DHT22;59598;48.112;16.280;2023-05-19T15:34:00;20.10;1.00
54788;DHT22;59598;48.112;16.280;2023-05-19T15:36:33;20.00;1.00
54788;DHT22;59598;48.112;16.280;2023-05-19T15:39:05;20.00;1.00
54788;DHT22;59598;48.112;16.280;2023-05-19T15:41:39;20.20;1.00
54788;DHT22;59598;48.112;16.280;2023-05-19T15:44:15;20.20;1.00
54788;DHT22;59598;48.112;16.280;2023-05-19T15:46:50;20.10;1.00
54788;DHT22;59598;48.112;16.280;2023-05-19T15:49:21;20.20;1.00
54788;DHT22;59598;48.112;16.280;2023-05-19T15:51:55;20.40;1.00
54788;DHT22;59598;48.112;16.280;2023-05-19T15:54:27;20.50;1.00
54788;DHT22;59598;48.112;16.280;2023-05-19T15:56:58;20.50;1.00
54788;DHT22;59598;48.112;16.280;2023-05-19T15:59:31;20.30;1.00
54788;DHT22;59598;48.112;16.280;2023-05-19T16:02:06;20.20;1.00
54788;DHT22;59598;48.112;16.280;2023-05-19T16:04:37;20.10;1.00
54788;DHT22;59598;48.112;16.280;2023-05-19T16:07:11;20.10;1.00
54788;DHT22;59598;48.112;16.280;2023-05-19T16:09:43;20.10;1.00
54788;DHT22;59598;48.112;16.280;2023-05-19T16:12:14;20.10;1.00
54788;DHT22;59598;48.112;16.280;2023-05-19T16:14:51;20.10;1.00
54788;DHT22;59598;48.112;16.280;2023-05-19T16:17:22;20.10;1.00
54788;DHT22;59598;48.112;16.280;2023-05-19T16:19:54;20.10;1.00
54788;DHT22;59598;48.112;16.280;2023-05-19T16:22:25;19.80;1.00
54788;DHT22;59598;48.112;16.280;2023-05-19T16:24:57;19.70;1.00
54788;DHT22;59598;48.112;16.280;2023-05-19T16:27:33;19.70;1.00
54788;DHT22;59598;48.112;16.280;2023-05-19T16:30:07;19.50;1.00